Overseas Santorini — V7TB5 — position and weather

sailwx.info

Track history (hours):
 
Tides and Currents Weather Stations Pressure Air Temp Water Temp Dewpoint Dewpoint Depression Visibility Wind Speed Wind Dir Waves Ship Positions

Overseas Santorini

Last reported at 2017-Mar-15 16:30 UTC. Time now 2017-Mar-28 02:24 UTC.
Position N 07°25' W 014°54'.
Warning: this ship's position is 12 days out of date.

Length 183 m; draft 11 m.

Type: Ship (hazmat cat A). MMSI: 538003772.

Date/timePositionNaut miles runAvg speedWind from/ knotsBaromVisibWave heightAir tempDewpointWater temp
2017-Mar-15 16:30N 07°25' W 014°54'1314.1
2017-Mar-15 15:33N 07°35' W 015°02'1414.1
2017-Mar-15 14:34N 07°46' W 015°11'1513.9
2017-Mar-15 13:30N 07°58' W 015°20'17014.0
2017-Mar-15 01:18N 10°15' W 017°02'1114.0
2017-Mar-15 00:30N 10°25' W 017°07'1314.2
2017-Mar-14 23:33N 10°38' W 017°11'3114.1
2017-Mar-14 21:21N 11°07' W 017°24'17914.0
2017-Mar-14 08:33N 14°04' W 017°52'1313.4
2017-Mar-14 07:34N 14°17' W 017°53'1413.4
2017-Mar-14 06:31N 14°31' W 017°53'19213.4
2017-Mar-13 16:12N 17°43' W 017°58'2414.0
2017-Mar-13 14:30N 18°07' W 017°58'3214.1
2017-Mar-13 12:15N 18°39' W 017°60'1014.0
2017-Mar-13 11:33N 18°48' W 018°00'1414.0
2017-Mar-13 10:33N 19°02' W 018°01'1413.9
2017-Mar-13 09:34N 19°16' W 017°60'1413.7
2017-Mar-13 08:33N 19°30' W 018°00'1414.1
2017-Mar-13 07:33N 19°44' W 017°60'1414.0
2017-Mar-13 06:33N 19°58' W 017°60'1414.0
2017-Mar-13 05:34N 20°12' W 018°00'1413.6
2017-Mar-13 04:33N 20°25' W 017°60'1714.1
2017-Mar-13 03:22N 20°42' W 017°58'1313.7
2017-Mar-13 02:23N 20°55' W 017°54'1113.4
2017-Mar-13 01:33N 21°05' W 017°50'1313.2
2017-Mar-13 00:34N 21°18' W 017°46'1713.7
2017-Mar-12 23:18N 21°35' W 017°41'1013.8
2017-Mar-12 22:33N 21°45' W 017°39'1513.8
2017-Mar-12 21:28N 21°59' W 017°34'1213.5
2017-Mar-12 20:33N 22°11' W 017°30'2913.8
2017-Mar-12 18:28N 22°38' W 017°21'1314.7
2017-Mar-12 17:33N 22°51' W 017°16'18113.8
2017-Mar-12 04:24N 25°38' W 015°59'2713.9
2017-Mar-12 02:26N 26°02' W 015°45'2613.9
2017-Mar-12 00:32N 26°26' W 015°32'7014.0
2017-Mar-11 19:29N 27°36' W 015°20'1414.6
2017-Mar-11 18:33N 27°49' W 015°19'1313.0
2017-Mar-11 17:33N 28°02' W 015°19'6 5.0
2017-Mar-11 16:25N 28°06' W 015°24'0 0.0
2017-Mar-11 15:25N 28°06' W 015°24'0 0.0
2017-Mar-11 14:28N 28°06' W 015°24'0 0.0
2017-Mar-11 13:28N 28°06' W 015°24'0 0.0
2017-Mar-11 12:28N 28°06' W 015°24'0 0.0
2017-Mar-11 11:31N 28°06' W 015°24'0 0.0
2017-Mar-11 10:31N 28°06' W 015°24'1 1.5
2017-Mar-11 09:33N 28°07' W 015°22'1 0.9
2017-Mar-11 08:33N 28°07' W 015°21'0 0.1
2017-Mar-11 07:33N 28°07' W 015°21'1 0.8
2017-Mar-11 06:33N 28°06' W 015°20'8 8.4
2017-Mar-11 05:33N 28°05' W 015°11'1010.2
2017-Mar-11 04:33N 28°11' W 015°01'1111.2
2017-Mar-11 03:33N 28°20' W 014°54'1110.7
2017-Mar-11 02:33N 28°30' W 014°50'1413.6
2017-Mar-11 01:33N 28°43' W 014°45'1714.2
2017-Mar-11 00:22N 28°59' W 014°37'  
Track history (hours):
 
Tides and Currents Weather Stations Pressure Air Temp Water Temp Dewpoint Dewpoint Depression Visibility Wind Speed Wind Dir Waves Ship Positions

Overseas Santorini

Last reported at 2017-Mar-15 16:30 UTC. Time now 2017-Mar-28 02:24 UTC.
Position N 07°25' W 014°54'.
Warning: this ship's position is 12 days out of date.

Length 183 m; draft 11 m.

Type: Ship (hazmat cat A). MMSI: 538003772.

Date/timePositionNaut miles runAvg speedWind from/ knotsBaromVisibWave heightAir tempDewpointWater temp
2017-Mar-15 16:30N 07°25' W 014°54'1314.1
2017-Mar-15 15:33N 07°35' W 015°02'1414.1
2017-Mar-15 14:34N 07°46' W 015°11'1513.9
2017-Mar-15 13:30N 07°58' W 015°20'17014.0
2017-Mar-15 01:18N 10°15' W 017°02'1114.0
2017-Mar-15 00:30N 10°25' W 017°07'1314.2
2017-Mar-14 23:33N 10°38' W 017°11'3114.1
2017-Mar-14 21:21N 11°07' W 017°24'17914.0
2017-Mar-14 08:33N 14°04' W 017°52'1313.4
2017-Mar-14 07:34N 14°17' W 017°53'1413.4
2017-Mar-14 06:31N 14°31' W 017°53'19213.4
2017-Mar-13 16:12N 17°43' W 017°58'2414.0
2017-Mar-13 14:30N 18°07' W 017°58'3214.1
2017-Mar-13 12:15N 18°39' W 017°60'1014.0
2017-Mar-13 11:33N 18°48' W 018°00'1414.0
2017-Mar-13 10:33N 19°02' W 018°01'1413.9
2017-Mar-13 09:34N 19°16' W 017°60'1413.7
2017-Mar-13 08:33N 19°30' W 018°00'1414.1
2017-Mar-13 07:33N 19°44' W 017°60'1414.0
2017-Mar-13 06:33N 19°58' W 017°60'1414.0
2017-Mar-13 05:34N 20°12' W 018°00'1413.6
2017-Mar-13 04:33N 20°25' W 017°60'1714.1
2017-Mar-13 03:22N 20°42' W 017°58'1313.7
2017-Mar-13 02:23N 20°55' W 017°54'1113.4
2017-Mar-13 01:33N 21°05' W 017°50'1313.2
2017-Mar-13 00:34N 21°18' W 017°46'1713.7
2017-Mar-12 23:18N 21°35' W 017°41'1013.8
2017-Mar-12 22:33N 21°45' W 017°39'1513.8
2017-Mar-12 21:28N 21°59' W 017°34'1213.5
2017-Mar-12 20:33N 22°11' W 017°30'2913.8
2017-Mar-12 18:28N 22°38' W 017°21'1314.7
2017-Mar-12 17:33N 22°51' W 017°16'18113.8
2017-Mar-12 04:24N 25°38' W 015°59'2713.9
2017-Mar-12 02:26N 26°02' W 015°45'2613.9
2017-Mar-12 00:32N 26°26' W 015°32'7014.0
2017-Mar-11 19:29N 27°36' W 015°20'1414.6
2017-Mar-11 18:33N 27°49' W 015°19'1313.0
2017-Mar-11 17:33N 28°02' W 015°19'6 5.0
2017-Mar-11 16:25N 28°06' W 015°24'0 0.0
2017-Mar-11 15:25N 28°06' W 015°24'0 0.0
2017-Mar-11 14:28N 28°06' W 015°24'0 0.0
2017-Mar-11 13:28N 28°06' W 015°24'0 0.0
2017-Mar-11 12:28N 28°06' W 015°24'0 0.0
2017-Mar-11 11:31N 28°06' W 015°24'0 0.0
2017-Mar-11 10:31N 28°06' W 015°24'1 1.5
2017-Mar-11 09:33N 28°07' W 015°22'1 0.9
2017-Mar-11 08:33N 28°07' W 015°21'0 0.1
2017-Mar-11 07:33N 28°07' W 015°21'1 0.8
2017-Mar-11 06:33N 28°06' W 015°20'8 8.4
2017-Mar-11 05:33N 28°05' W 015°11'1010.2
2017-Mar-11 04:33N 28°11' W 015°01'1111.2
2017-Mar-11 03:33N 28°20' W 014°54'1110.7
2017-Mar-11 02:33N 28°30' W 014°50'1413.6
2017-Mar-11 01:33N 28°43' W 014°45'1714.2
2017-Mar-11 00:22N 28°59' W 014°37'  

Dump ship's entire track history